Huvudsida
METAR-TAF:

METAR-TAF

Flygplatser :

Bahrains internationella flygplats

Bahrain, Bahrain

latitud: 26-16N, longitud: 050-39E, höjd: 2 m

Aktuellt väderrapport

Denna rapport gjordes för 16 minuter sedan, klockan 14:30 UTC
Vind 10 kt från nord/nordväst
Temperatur 38°C
Fuktighet 38%
Tryck 1000 hPa
Sikt 10 km eller mer
Inga moln under 1 500 m eller inga cumulonimbus

METAR: OBBI 261430Z 34010KT CAVOK 38/21 Q1000 NOSIG

Tid: 17:46 (14:46 UTC)

Väderprognos

Denna rapport gjordes för 3 timmar och 46 minuter sedan, klockan 11:00 UTC
Prognos gäller från 26 kl. 12 UTC till 27 kl. 18 UTC
Vind 12 kt från nord/nordväst
Sikt 10 km eller mer
Inga moln under 1 500 m eller inga cumulonimbus
Blir
från 26 kl. 20 UTC till 26 kl. 22 UTC
Vind 5 kt varierande vindriktning
Blir
från 27 kl. 06 UTC till 27 kl. 08 UTC
Vind 10 kt från nord

TAF: OBBI 261100Z 2612/2718 34012KT CAVOK BECMG 2620/2622 VRB05KT BECMG 2706/2708 35010KT

Aktuella väderrapporter och prognoser från 4000 flygplatser (METAR- och TAF-rapporter).

De tillgängliga stationerna syns som gula och röda prickar på kartan.

För musen över prickarna för att se namnen på stationerna.

Klicka sedan för att få väderrapporter och prognoser.

För att ändra kartan: Klicka på de gröna knapparna med ett svart kors på för att zooma in; den gröna knappen med ett streck på för att zooma ut; eller på de gröna pilarna för angränsande kartor.


METAR-TAF: